sensor_id;sensor_type;location;lat;lon;timestamp;P1;durP1;ratioP1;P2;durP2;ratioP2
58468;SDS011;44257;44.804;10.220;2022-09-09T00:03:57;2.05;;;0.98;;
58468;SDS011;44257;44.804;10.220;2022-09-09T00:06:31;2.08;;;0.98;;
58468;SDS011;44257;44.804;10.220;2022-09-09T00:09:14;3.28;;;1.40;;
58468;SDS011;44257;44.804;10.220;2022-09-09T00:11:43;2.35;;;1.30;;
58468;SDS011;44257;44.804;10.220;2022-09-09T00:17:17;2.00;;;1.50;;
58468;SDS011;44257;44.804;10.220;2022-09-09T00:28:19;3.72;;;1.67;;
58468;SDS011;44257;44.804;10.220;2022-09-09T00:30:48;4.38;;;3.10;;
58468;SDS011;44257;44.804;10.220;2022-09-09T00:33:14;2.05;;;1.40;;
58468;SDS011;44257;44.804;10.220;2022-09-09T00:35:58;2.95;;;1.92;;
58468;SDS011;44257;44.804;10.220;2022-09-09T00:38:33;4.25;;;2.38;;
58468;SDS011;44257;44.804;10.220;2022-09-09T00:41:13;6.60;;;2.35;;
58468;SDS011;44257;44.804;10.220;2022-09-09T00:43:56;2.03;;;1.05;;
58468;SDS011;44257;44.804;10.220;2022-09-09T00:54:40;2.58;;;1.00;;
58468;SDS011;44257;44.804;10.220;2022-09-09T00:57:33;0.85;;;0.47;;
58468;SDS011;44257;44.804;10.220;2022-09-09T01:03:12;1.65;;;0.77;;
58468;SDS011;44257;44.804;10.220;2022-09-09T01:08:35;0.98;;;0.60;;
58468;SDS011;44257;44.804;10.220;2022-09-09T01:11:05;3.60;;;2.22;;
58468;SDS011;44257;44.804;10.220;2022-09-09T01:14:43;2.28;;;1.17;;
58468;SDS011;44257;44.804;10.220;2022-09-09T01:17:08;3.97;;;1.80;;
58468;SDS011;44257;44.804;10.220;2022-09-09T01:31:04;2.05;;;1.15;;
58468;SDS011;44257;44.804;10.220;2022-09-09T01:33:38;5.28;;;1.88;;
58468;SDS011;44257;44.804;10.220;2022-09-09T01:36:15;3.03;;;1.70;;
58468;SDS011;44257;44.804;10.220;2022-09-09T01:38:49;6.63;;;1.92;;
58468;SDS011;44257;44.804;10.220;2022-09-09T01:41:16;2.08;;;1.30;;
58468;SDS011;44257;44.804;10.220;2022-09-09T01:43:48;5.38;;;2.00;;
58468;SDS011;44257;44.804;10.220;2022-09-09T01:46:15;1.50;;;1.00;;
58468;SDS011;44257;44.804;10.220;2022-09-09T01:48:42;4.90;;;1.13;;
58468;SDS011;44257;44.804;10.220;2022-09-09T01:51:09;3.20;;;1.20;;
58468;SDS011;44257;44.804;10.220;2022-09-09T01:53:36;4.22;;;1.20;;
58468;SDS011;44257;44.804;10.220;2022-09-09T01:56:18;3.08;;;1.25;;
58468;SDS011;44257;44.804;10.220;2022-09-09T02:02:03;2.13;;;1.00;;
58468;SDS011;44257;44.804;10.220;2022-09-09T02:04:47;1.75;;;1.13;;
58468;SDS011;44257;44.804;10.220;2022-09-09T02:07:23;4.65;;;1.15;;
58468;SDS011;44257;44.804;10.220;2022-09-09T02:10:05;0.77;;;0.55;;
58468;SDS011;44257;44.804;10.220;2022-09-09T02:12:33;10.07;;;0.88;;
58468;SDS011;44257;44.804;10.220;2022-09-09T02:15:05;1.23;;;0.68;;
58468;SDS011;44257;44.804;10.220;2022-09-09T02:17:46;1.33;;;0.73;;
58468;SDS011;44257;44.804;10.220;2022-09-09T02:20:16;1.70;;;1.00;;
58468;SDS011;44257;44.804;10.220;2022-09-09T02:22:50;0.82;;;0.57;;
58468;SDS011;44257;44.804;10.220;2022-09-09T02:25:19;0.70;;;0.47;;
58468;SDS011;44257;44.804;10.220;2022-09-09T02:27:50;1.20;;;0.50;;
58468;SDS011;44257;44.804;10.220;2022-09-09T02:30:19;1.98;;;1.23;;
58468;SDS011;44257;44.804;10.220;2022-09-09T02:32:51;0.80;;;0.68;;
58468;SDS011;44257;44.804;10.220;2022-09-09T02:35:25;1.05;;;0.55;;
58468;SDS011;44257;44.804;10.220;2022-09-09T02:37:54;0.73;;;0.38;;
58468;SDS011;44257;44.804;10.220;2022-09-09T02:40:22;0.65;;;0.43;;
58468;SDS011;44257;44.804;10.220;2022-09-09T02:42:55;2.53;;;0.90;;
58468;SDS011;44257;44.804;10.220;2022-09-09T02:45:26;1.77;;;0.98;;
58468;SDS011;44257;44.804;10.220;2022-09-09T02:50:59;1.50;;;0.70;;
58468;SDS011;44257;44.804;10.220;2022-09-09T02:56:49;1.65;;;0.98;;
58468;SDS011;44257;44.804;10.220;2022-09-09T02:59:22;3.05;;;1.58;;
58468;SDS011;44257;44.804;10.220;2022-09-09T03:01:52;2.47;;;1.48;;
58468;SDS011;44257;44.804;10.220;2022-09-09T03:04:18;1.38;;;0.63;;
58468;SDS011;44257;44.804;10.220;2022-09-09T03:06:45;0.95;;;0.40;;
58468;SDS011;44257;44.804;10.220;2022-09-09T03:09:18;2.40;;;1.05;;
58468;SDS011;44257;44.804;10.220;2022-09-09T03:11:44;1.08;;;0.57;;
58468;SDS011;44257;44.804;10.220;2022-09-09T03:14:11;1.23;;;0.47;;
58468;SDS011;44257;44.804;10.220;2022-09-09T03:16:37;1.02;;;0.57;;
58468;SDS011;44257;44.804;10.220;2022-09-09T03:19:03;1.20;;;0.80;;
58468;SDS011;44257;44.804;10.220;2022-09-09T03:21:29;0.77;;;0.57;;
58468;SDS011;44257;44.804;10.220;2022-09-09T03:23:56;0.73;;;0.47;;
58468;SDS011;44257;44.804;10.220;2022-09-09T03:26:22;1.88;;;0.77;;
58468;SDS011;44257;44.804;10.220;2022-09-09T03:28:48;0.60;;;0.38;;
58468;SDS011;44257;44.804;10.220;2022-09-09T03:31:17;1.15;;;0.80;;
58468;SDS011;44257;44.804;10.220;2022-09-09T03:33:44;1.27;;;0.88;;
58468;SDS011;44257;44.804;10.220;2022-09-09T03:36:12;3.17;;;0.98;;
58468;SDS011;44257;44.804;10.220;2022-09-09T03:38:39;1.58;;;0.65;;
58468;SDS011;44257;44.804;10.220;2022-09-09T03:41:05;1.48;;;1.23;;
58468;SDS011;44257;44.804;10.220;2022-09-09T03:43:33;1.25;;;0.80;;
58468;SDS011;44257;44.804;10.220;2022-09-09T03:45:59;0.70;;;0.60;;
58468;SDS011;44257;44.804;10.220;2022-09-09T03:48:26;2.90;;;1.30;;
58468;SDS011;44257;44.804;10.220;2022-09-09T03:50:54;0.88;;;0.60;;
58468;SDS011;44257;44.804;10.220;2022-09-09T03:53:26;1.20;;;0.88;;
58468;SDS011;44257;44.804;10.220;2022-09-09T03:55:53;1.13;;;0.77;;
58468;SDS011;44257;44.804;10.220;2022-09-09T03:58:22;0.65;;;0.50;;
58468;SDS011;44257;44.804;10.220;2022-09-09T04:00:54;0.73;;;0.30;;
58468;SDS011;44257;44.804;10.220;2022-09-09T04:03:21;1.00;;;0.65;;
58468;SDS011;44257;44.804;10.220;2022-09-09T04:05:54;2.53;;;0.43;;
58468;SDS011;44257;44.804;10.220;2022-09-09T04:08:22;0.65;;;0.45;;
58468;SDS011;44257;44.804;10.220;2022-09-09T04:10:51;0.60;;;0.40;;
58468;SDS011;44257;44.804;10.220;2022-09-09T04:13:18;1.05;;;0.85;;
58468;SDS011;44257;44.804;10.220;2022-09-09T04:15:53;1.27;;;0.32;;
58468;SDS011;44257;44.804;10.220;2022-09-09T04:18:21;0.45;;;0.32;;
58468;SDS011;44257;44.804;10.220;2022-09-09T04:20:49;1.77;;;0.55;;
58468;SDS011;44257;44.804;10.220;2022-09-09T04:23:18;1.73;;;0.57;;
58468;SDS011;44257;44.804;10.220;2022-09-09T04:25:49;0.95;;;0.40;;
58468;SDS011;44257;44.804;10.220;2022-09-09T04:28:18;1.98;;;0.52;;
58468;SDS011;44257;44.804;10.220;2022-09-09T04:30:45;1.25;;;0.63;;
58468;SDS011;44257;44.804;10.220;2022-09-09T04:33:12;2.10;;;0.73;;
58468;SDS011;44257;44.804;10.220;2022-09-09T04:35:38;0.35;;;0.32;;
58468;SDS011;44257;44.804;10.220;2022-09-09T04:38:09;1.05;;;0.50;;
58468;SDS011;44257;44.804;10.220;2022-09-09T04:40:35;1.20;;;0.60;;
58468;SDS011;44257;44.804;10.220;2022-09-09T04:43:02;1.10;;;0.65;;
58468;SDS011;44257;44.804;10.220;2022-09-09T04:45:31;1.73;;;0.90;;
58468;SDS011;44257;44.804;10.220;2022-09-09T04:47:57;1.17;;;0.73;;
58468;SDS011;44257;44.804;10.220;2022-09-09T04:50:23;1.05;;;0.57;;
58468;SDS011;44257;44.804;10.220;2022-09-09T04:52:59;1.65;;;0.77;;
58468;SDS011;44257;44.804;10.220;2022-09-09T04:55:27;0.65;;;0.52;;
58468;SDS011;44257;44.804;10.220;2022-09-09T04:57:54;0.70;;;0.60;;
58468;SDS011;44257;44.804;10.220;2022-09-09T05:00:19;1.55;;;0.68;;
58468;SDS011;44257;44.804;10.220;2022-09-09T05:02:46;0.93;;;0.75;;
58468;SDS011;44257;44.804;10.220;2022-09-09T05:05:13;1.48;;;0.63;;
58468;SDS011;44257;44.804;10.220;2022-09-09T05:07:40;1.10;;;0.47;;
58468;SDS011;44257;44.804;10.220;2022-09-09T05:10:07;0.60;;;0.60;;
58468;SDS011;44257;44.804;10.220;2022-09-09T05:12:33;0.55;;;0.55;;
58468;SDS011;44257;44.804;10.220;2022-09-09T05:15:00;0.80;;;0.55;;
58468;SDS011;44257;44.804;10.220;2022-09-09T05:17:26;0.77;;;0.57;;
58468;SDS011;44257;44.804;10.220;2022-09-09T05:19:53;0.50;;;0.43;;
58468;SDS011;44257;44.804;10.220;2022-09-09T05:22:19;0.73;;;0.73;;
58468;SDS011;44257;44.804;10.220;2022-09-09T05:24:47;1.00;;;0.82;;
58468;SDS011;44257;44.804;10.220;2022-09-09T05:27:17;1.42;;;0.65;;
58468;SDS011;44257;44.804;10.220;2022-09-09T05:29:45;2.35;;;0.57;;
58468;SDS011;44257;44.804;10.220;2022-09-09T05:32:12;0.95;;;0.63;;
58468;SDS011;44257;44.804;10.220;2022-09-09T05:34:40;5.32;;;0.32;;
58468;SDS011;44257;44.804;10.220;2022-09-09T05:37:06;1.13;;;0.47;;
58468;SDS011;44257;44.804;10.220;2022-09-09T05:39:33;1.30;;;0.85;;
58468;SDS011;44257;44.804;10.220;2022-09-09T05:42:02;1.17;;;0.82;;
58468;SDS011;44257;44.804;10.220;2022-09-09T05:44:31;6.75;;;1.50;;
58468;SDS011;44257;44.804;10.220;2022-09-09T05:46:58;1.02;;;0.73;;
58468;SDS011;44257;44.804;10.220;2022-09-09T05:49:24;3.38;;;0.90;;
58468;SDS011;44257;44.804;10.220;2022-09-09T05:51:50;0.60;;;0.45;;
58468;SDS011;44257;44.804;10.220;2022-09-09T05:54:18;2.00;;;0.70;;
58468;SDS011;44257;44.804;10.220;2022-09-09T05:56:48;4.35;;;1.20;;
58468;SDS011;44257;44.804;10.220;2022-09-09T05:59:15;1.02;;;0.70;;
58468;SDS011;44257;44.804;10.220;2022-09-09T06:01:42;0.47;;;0.32;;
58468;SDS011;44257;44.804;10.220;2022-09-09T06:04:18;1.35;;;0.70;;
58468;SDS011;44257;44.804;10.220;2022-09-09T06:06:50;0.93;;;0.60;;
58468;SDS011;44257;44.804;10.220;2022-09-09T06:09:18;1.33;;;0.77;;
58468;SDS011;44257;44.804;10.220;2022-09-09T06:11:44;5.88;;;0.60;;
58468;SDS011;44257;44.804;10.220;2022-09-09T06:14:12;7.45;;;0.90;;
58468;SDS011;44257;44.804;10.220;2022-09-09T06:16:39;1.88;;;0.60;;
58468;SDS011;44257;44.804;10.220;2022-09-09T06:19:13;0.73;;;0.40;;
58468;SDS011;44257;44.804;10.220;2022-09-09T06:21:40;1.65;;;1.13;;
58468;SDS011;44257;44.804;10.220;2022-09-09T06:24:07;0.95;;;0.63;;
58468;SDS011;44257;44.804;10.220;2022-09-09T06:26:34;2.83;;;0.55;;
58468;SDS011;44257;44.804;10.220;2022-09-09T06:29:09;1.15;;;0.80;;
58468;SDS011;44257;44.804;10.220;2022-09-09T06:31:35;2.67;;;0.93;;
58468;SDS011;44257;44.804;10.220;2022-09-09T06:34:08;1.25;;;0.50;;
58468;SDS011;44257;44.804;10.220;2022-09-09T06:36:38;1.17;;;0.85;;
58468;SDS011;44257;44.804;10.220;2022-09-09T06:39:05;1.05;;;0.63;;
58468;SDS011;44257;44.804;10.220;2022-09-09T06:41:33;1.23;;;0.38;;
58468;SDS011;44257;44.804;10.220;2022-09-09T06:44:01;0.80;;;0.65;;
58468;SDS011;44257;44.804;10.220;2022-09-09T06:46:32;3.47;;;1.10;;
58468;SDS011;44257;44.804;10.220;2022-09-09T06:49:01;2.95;;;1.13;;
58468;SDS011;44257;44.804;10.220;2022-09-09T06:51:29;3.35;;;1.55;;
58468;SDS011;44257;44.804;10.220;2022-09-09T06:53:57;1.13;;;0.85;;
58468;SDS011;44257;44.804;10.220;2022-09-09T06:56:29;4.43;;;0.93;;
58468;SDS011;44257;44.804;10.220;2022-09-09T06:58:58;0.63;;;0.57;;
58468;SDS011;44257;44.804;10.220;2022-09-09T07:01:31;1.15;;;0.90;;
58468;SDS011;44257;44.804;10.220;2022-09-09T07:04:01;1.67;;;0.85;;
58468;SDS011;44257;44.804;10.220;2022-09-09T07:06:33;2.55;;;1.45;;
58468;SDS011;44257;44.804;10.220;2022-09-09T07:09:05;4.47;;;1.30;;
58468;SDS011;44257;44.804;10.220;2022-09-09T07:11:36;1.27;;;0.98;;
58468;SDS011;44257;44.804;10.220;2022-09-09T07:14:07;2.40;;;1.15;;
58468;SDS011;44257;44.804;10.220;2022-09-09T07:16:34;1.40;;;0.60;;
58468;SDS011;44257;44.804;10.220;2022-09-09T07:19:03;1.67;;;1.05;;
58468;SDS011;44257;44.804;10.220;2022-09-09T07:21:30;1.10;;;0.65;;
58468;SDS011;44257;44.804;10.220;2022-09-09T07:23:57;1.33;;;0.85;;
58468;SDS011;44257;44.804;10.220;2022-09-09T07:26:24;1.88;;;1.45;;
58468;SDS011;44257;44.804;10.220;2022-09-09T07:28:53;1.48;;;0.98;;
58468;SDS011;44257;44.804;10.220;2022-09-09T07:31:23;1.90;;;0.60;;
58468;SDS011;44257;44.804;10.220;2022-09-09T07:33:52;4.38;;;1.10;;
58468;SDS011;44257;44.804;10.220;2022-09-09T07:36:19;1.35;;;0.65;;
58468;SDS011;44257;44.804;10.220;2022-09-09T07:38:53;1.35;;;0.85;;
58468;SDS011;44257;44.804;10.220;2022-09-09T07:41:23;0.75;;;0.68;;
58468;SDS011;44257;44.804;10.220;2022-09-09T07:43:51;3.10;;;1.50;;
58468;SDS011;44257;44.804;10.220;2022-09-09T07:46:20;3.42;;;1.95;;
58468;SDS011;44257;44.804;10.220;2022-09-09T07:48:51;6.55;;;3.13;;
58468;SDS011;44257;44.804;10.220;2022-09-09T07:51:34;7.68;;;3.28;;
58468;SDS011;44257;44.804;10.220;2022-09-09T07:54:06;8.02;;;2.72;;
58468;SDS011;44257;44.804;10.220;2022-09-09T07:56:36;6.85;;;2.60;;
58468;SDS011;44257;44.804;10.220;2022-09-09T07:59:03;6.95;;;3.55;;
58468;SDS011;44257;44.804;10.220;2022-09-09T08:01:34;6.57;;;3.60;;
58468;SDS011;44257;44.804;10.220;2022-09-09T08:04:05;5.57;;;2.85;;
58468;SDS011;44257;44.804;10.220;2022-09-09T08:06:35;13.65;;;3.85;;
58468;SDS011;44257;44.804;10.220;2022-09-09T08:09:04;11.15;;;2.35;;
58468;SDS011;44257;44.804;10.220;2022-09-09T08:11:31;7.25;;;3.15;;
58468;SDS011;44257;44.804;10.220;2022-09-09T08:13:59;5.70;;;2.97;;
58468;SDS011;44257;44.804;10.220;2022-09-09T08:16:27;6.07;;;3.35;;
58468;SDS011;44257;44.804;10.220;2022-09-09T08:18:56;4.10;;;2.72;;
58468;SDS011;44257;44.804;10.220;2022-09-09T08:21:24;4.63;;;3.50;;
58468;SDS011;44257;44.804;10.220;2022-09-09T08:23:55;5.72;;;3.67;;
58468;SDS011;44257;44.804;10.220;2022-09-09T08:26:26;6.22;;;3.45;;
58468;SDS011;44257;44.804;10.220;2022-09-09T08:28:55;12.00;;;4.80;;
58468;SDS011;44257;44.804;10.220;2022-09-09T08:31:24;6.22;;;3.25;;
58468;SDS011;44257;44.804;10.220;2022-09-09T08:33:54;5.78;;;3.13;;
58468;SDS011;44257;44.804;10.220;2022-09-09T08:36:22;5.75;;;2.83;;
58468;SDS011;44257;44.804;10.220;2022-09-09T08:38:51;5.70;;;3.22;;
58468;SDS011;44257;44.804;10.220;2022-09-09T08:44:05;5.97;;;2.60;;
58468;SDS011;44257;44.804;10.220;2022-09-09T08:46:38;6.78;;;3.03;;
58468;SDS011;44257;44.804;10.220;2022-09-09T08:49:24;6.72;;;3.53;;
58468;SDS011;44257;44.804;10.220;2022-09-09T08:52:16;6.57;;;3.42;;
58468;SDS011;44257;44.804;10.220;2022-09-09T08:54:46;8.05;;;4.90;;
58468;SDS011;44257;44.804;10.220;2022-09-09T08:57:23;6.93;;;4.10;;
58468;SDS011;44257;44.804;10.220;2022-09-09T08:59:52;9.20;;;4.10;;
58468;SDS011;44257;44.804;10.220;2022-09-09T09:02:23;8.80;;;3.88;;
58468;SDS011;44257;44.804;10.220;2022-09-09T09:08:25;7.03;;;3.28;;
58468;SDS011;44257;44.804;10.220;2022-09-09T09:10:54;7.25;;;3.53;;
58468;SDS011;44257;44.804;10.220;2022-09-09T09:19:01;9.23;;;3.05;;
58468;SDS011;44257;44.804;10.220;2022-09-09T09:21:37;13.77;;;3.75;;
58468;SDS011;44257;44.804;10.220;2022-09-09T09:24:11;7.15;;;3.85;;
58468;SDS011;44257;44.804;10.220;2022-09-09T09:26:40;6.25;;;3.28;;
58468;SDS011;44257;44.804;10.220;2022-09-09T09:29:13;4.55;;;2.90;;
58468;SDS011;44257;44.804;10.220;2022-09-09T09:31:45;7.57;;;3.25;;
58468;SDS011;44257;44.804;10.220;2022-09-09T09:34:25;7.15;;;4.15;;
58468;SDS011;44257;44.804;10.220;2022-09-09T09:39:31;10.05;;;4.30;;
58468;SDS011;44257;44.804;10.220;2022-09-09T09:42:13;10.90;;;5.45;;
58468;SDS011;44257;44.804;10.220;2022-09-09T09:44:46;8.60;;;3.08;;
58468;SDS011;44257;44.804;10.220;2022-09-09T09:47:17;8.00;;;4.07;;
58468;SDS011;44257;44.804;10.220;2022-09-09T09:49:54;5.05;;;2.50;;
58468;SDS011;44257;44.804;10.220;2022-09-09T09:52:23;8.70;;;4.18;;
58468;SDS011;44257;44.804;10.220;2022-09-09T09:54:54;7.63;;;4.83;;
58468;SDS011;44257;44.804;10.220;2022-09-09T09:57:26;9.68;;;4.18;;
58468;SDS011;44257;44.804;10.220;2022-09-09T10:02:40;8.38;;;4.72;;
58468;SDS011;44257;44.804;10.220;2022-09-09T10:05:16;8.07;;;4.00;;
58468;SDS011;44257;44.804;10.220;2022-09-09T10:10:40;7.13;;;4.88;;
58468;SDS011;44257;44.804;10.220;2022-09-09T10:16:06;6.65;;;3.75;;
58468;SDS011;44257;44.804;10.220;2022-09-09T10:19:14;6.07;;;4.40;;
58468;SDS011;44257;44.804;10.220;2022-09-09T10:30:23;5.13;;;3.22;;
58468;SDS011;44257;44.804;10.220;2022-09-09T10:38:22;6.45;;;4.30;;
58468;SDS011;44257;44.804;10.220;2022-09-09T10:52:16;4.53;;;2.97;;
58468;SDS011;44257;44.804;10.220;2022-09-09T10:55:00;3.85;;;2.78;;
58468;SDS011;44257;44.804;10.220;2022-09-09T10:57:48;4.75;;;2.13;;
58468;SDS011;44257;44.804;10.220;2022-09-09T11:02:57;3.95;;;2.50;;
58468;SDS011;44257;44.804;10.220;2022-09-09T11:05:33;4.10;;;2.25;;
58468;SDS011;44257;44.804;10.220;2022-09-09T11:08:09;3.08;;;1.70;;
58468;SDS011;44257;44.804;10.220;2022-09-09T11:11:02;4.80;;;2.30;;
58468;SDS011;44257;44.804;10.220;2022-09-09T11:25:08;3.92;;;2.10;;
58468;SDS011;44257;44.804;10.220;2022-09-09T11:30:20;6.72;;;2.67;;
58468;SDS011;44257;44.804;10.220;2022-09-09T11:35:40;6.05;;;1.92;;
58468;SDS011;44257;44.804;10.220;2022-09-09T11:38:33;3.72;;;2.33;;
58468;SDS011;44257;44.804;10.220;2022-09-09T11:41:12;2.85;;;1.77;;
58468;SDS011;44257;44.804;10.220;2022-09-09T11:46:06;7.22;;;2.10;;
58468;SDS011;44257;44.804;10.220;2022-09-09T11:48:37;2.60;;;1.90;;
58468;SDS011;44257;44.804;10.220;2022-09-09T11:51:09;5.03;;;2.42;;
58468;SDS011;44257;44.804;10.220;2022-09-09T11:56:46;1.88;;;1.48;;
58468;SDS011;44257;44.804;10.220;2022-09-09T12:02:02;2.55;;;1.65;;
58468;SDS011;44257;44.804;10.220;2022-09-09T12:04:35;5.57;;;1.83;;
58468;SDS011;44257;44.804;10.220;2022-09-09T12:09:41;2.20;;;1.15;;
58468;SDS011;44257;44.804;10.220;2022-09-09T12:12:32;4.53;;;1.52;;
58468;SDS011;44257;44.804;10.220;2022-09-09T12:17:31;4.60;;;1.50;;
58468;SDS011;44257;44.804;10.220;2022-09-09T12:25:36;2.75;;;0.90;;
58468;SDS011;44257;44.804;10.220;2022-09-09T12:28:38;4.07;;;1.27;;
58468;SDS011;44257;44.804;10.220;2022-09-09T12:31:24;2.05;;;1.20;;
58468;SDS011;44257;44.804;10.220;2022-09-09T12:34:15;2.15;;;1.17;;
58468;SDS011;44257;44.804;10.220;2022-09-09T12:36:57;5.95;;;1.58;;
58468;SDS011;44257;44.804;10.220;2022-09-09T12:42:03;1.42;;;1.10;;
58468;SDS011;44257;44.804;10.220;2022-09-09T12:44:30;1.20;;;0.90;;
58468;SDS011;44257;44.804;10.220;2022-09-09T12:46:58;6.03;;;1.05;;
58468;SDS011;44257;44.804;10.220;2022-09-09T12:49:32;3.28;;;0.85;;
58468;SDS011;44257;44.804;10.220;2022-09-09T12:52:02;2.13;;;0.77;;
58468;SDS011;44257;44.804;10.220;2022-09-09T12:54:31;1.00;;;0.55;;
58468;SDS011;44257;44.804;10.220;2022-09-09T12:56:59;1.35;;;0.80;;
58468;SDS011;44257;44.804;10.220;2022-09-09T12:59:36;1.38;;;0.77;;
58468;SDS011;44257;44.804;10.220;2022-09-09T13:02:21;1.95;;;0.90;;
58468;SDS011;44257;44.804;10.220;2022-09-09T13:04:48;3.38;;;1.00;;
58468;SDS011;44257;44.804;10.220;2022-09-09T13:07:15;1.20;;;0.82;;
58468;SDS011;44257;44.804;10.220;2022-09-09T13:09:43;1.20;;;0.77;;
58468;SDS011;44257;44.804;10.220;2022-09-09T13:12:14;1.10;;;0.60;;
58468;SDS011;44257;44.804;10.220;2022-09-09T13:14:44;2.10;;;1.23;;
58468;SDS011;44257;44.804;10.220;2022-09-09T13:17:23;2.05;;;1.15;;
58468;SDS011;44257;44.804;10.220;2022-09-09T13:19:52;1.60;;;0.95;;
58468;SDS011;44257;44.804;10.220;2022-09-09T13:22:24;1.58;;;0.98;;
58468;SDS011;44257;44.804;10.220;2022-09-09T13:27:36;1.88;;;0.68;;
58468;SDS011;44257;44.804;10.220;2022-09-09T13:33:05;1.83;;;1.17;;
58468;SDS011;44257;44.804;10.220;2022-09-09T13:35:54;3.90;;;0.80;;
58468;SDS011;44257;44.804;10.220;2022-09-09T13:38:27;1.40;;;1.00;;
58468;SDS011;44257;44.804;10.220;2022-09-09T13:40:58;2.47;;;1.13;;
58468;SDS011;44257;44.804;10.220;2022-09-09T13:43:36;1.60;;;0.70;;
58468;SDS011;44257;44.804;10.220;2022-09-09T13:49:01;1.50;;;0.90;;
58468;SDS011;44257;44.804;10.220;2022-09-09T13:51:51;1.73;;;0.88;;
58468;SDS011;44257;44.804;10.220;2022-09-09T13:54:30;1.98;;;0.93;;
58468;SDS011;44257;44.804;10.220;2022-09-09T13:56:56;1.90;;;1.00;;
58468;SDS011;44257;44.804;10.220;2022-09-09T13:59:22;1.75;;;1.05;;
58468;SDS011;44257;44.804;10.220;2022-09-09T14:01:49;1.65;;;1.08;;
58468;SDS011;44257;44.804;10.220;2022-09-09T14:04:17;7.13;;;1.58;;
58468;SDS011;44257;44.804;10.220;2022-09-09T14:06:45;2.70;;;1.08;;
58468;SDS011;44257;44.804;10.220;2022-09-09T14:09:13;0.95;;;0.52;;
58468;SDS011;44257;44.804;10.220;2022-09-09T14:11:40;1.42;;;0.90;;
58468;SDS011;44257;44.804;10.220;2022-09-09T14:14:07;1.48;;;0.80;;
58468;SDS011;44257;44.804;10.220;2022-09-09T14:16:32;1.48;;;0.98;;
58468;SDS011;44257;44.804;10.220;2022-09-09T14:18:59;3.42;;;0.93;;
58468;SDS011;44257;44.804;10.220;2022-09-09T14:21:25;1.95;;;0.60;;
58468;SDS011;44257;44.804;10.220;2022-09-09T14:23:52;1.77;;;1.00;;
58468;SDS011;44257;44.804;10.220;2022-09-09T14:26:18;1.55;;;0.77;;
58468;SDS011;44257;44.804;10.220;2022-09-09T14:28:48;3.00;;;1.40;;
58468;SDS011;44257;44.804;10.220;2022-09-09T14:31:15;0.80;;;0.57;;
58468;SDS011;44257;44.804;10.220;2022-09-09T14:33:42;3.20;;;1.00;;
58468;SDS011;44257;44.804;10.220;2022-09-09T14:36:09;0.85;;;0.65;;
58468;SDS011;44257;44.804;10.220;2022-09-09T14:38:36;4.03;;;0.85;;
58468;SDS011;44257;44.804;10.220;2022-09-09T14:41:08;3.03;;;0.80;;
58468;SDS011;44257;44.804;10.220;2022-09-09T14:43:39;1.48;;;0.90;;
58468;SDS011;44257;44.804;10.220;2022-09-09T14:46:06;1.33;;;0.80;;
58468;SDS011;44257;44.804;10.220;2022-09-09T14:48:36;3.22;;;1.52;;
58468;SDS011;44257;44.804;10.220;2022-09-09T14:51:09;6.93;;;1.55;;
58468;SDS011;44257;44.804;10.220;2022-09-09T14:53:38;1.10;;;0.73;;
58468;SDS011;44257;44.804;10.220;2022-09-09T14:58:35;1.35;;;0.77;;
58468;SDS011;44257;44.804;10.220;2022-09-09T15:01:07;1.13;;;0.65;;
58468;SDS011;44257;44.804;10.220;2022-09-09T15:03:36;1.48;;;0.73;;
58468;SDS011;44257;44.804;10.220;2022-09-09T15:06:09;1.25;;;0.88;;
58468;SDS011;44257;44.804;10.220;2022-09-09T15:08:37;1.15;;;0.68;;
58468;SDS011;44257;44.804;10.220;2022-09-09T15:11:05;1.48;;;1.02;;
58468;SDS011;44257;44.804;10.220;2022-09-09T15:13:35;3.53;;;1.13;;
58468;SDS011;44257;44.804;10.220;2022-09-09T15:16:05;2.63;;;0.73;;
58468;SDS011;44257;44.804;10.220;2022-09-09T15:18:31;2.55;;;1.20;;
58468;SDS011;44257;44.804;10.220;2022-09-09T15:21:01;2.50;;;1.05;;
58468;SDS011;44257;44.804;10.220;2022-09-09T15:25:59;1.33;;;0.80;;
58468;SDS011;44257;44.804;10.220;2022-09-09T15:28:25;2.25;;;1.38;;
58468;SDS011;44257;44.804;10.220;2022-09-09T15:30:52;3.88;;;0.93;;
58468;SDS011;44257;44.804;10.220;2022-09-09T15:33:19;1.90;;;1.10;;
58468;SDS011;44257;44.804;10.220;2022-09-09T15:35:46;1.02;;;0.70;;
58468;SDS011;44257;44.804;10.220;2022-09-09T15:38:12;1.30;;;0.80;;
58468;SDS011;44257;44.804;10.220;2022-09-09T15:40:39;2.30;;;0.90;;
58468;SDS011;44257;44.804;10.220;2022-09-09T15:43:05;0.90;;;0.68;;
58468;SDS011;44257;44.804;10.220;2022-09-09T15:45:32;2.05;;;1.10;;
58468;SDS011;44257;44.804;10.220;2022-09-09T15:47:59;0.98;;;0.70;;
58468;SDS011;44257;44.804;10.220;2022-09-09T15:50:26;0.70;;;0.60;;
58468;SDS011;44257;44.804;10.220;2022-09-09T15:52:52;2.28;;;1.15;;
58468;SDS011;44257;44.804;10.220;2022-09-09T15:55:18;1.58;;;0.90;;
58468;SDS011;44257;44.804;10.220;2022-09-09T15:57:49;1.77;;;0.82;;
58468;SDS011;44257;44.804;10.220;2022-09-09T16:00:15;1.42;;;0.70;;
58468;SDS011;44257;44.804;10.220;2022-09-09T16:02:41;3.00;;;0.93;;
58468;SDS011;44257;44.804;10.220;2022-09-09T16:05:07;1.30;;;0.90;;
58468;SDS011;44257;44.804;10.220;2022-09-09T16:07:33;1.00;;;0.70;;
58468;SDS011;44257;44.804;10.220;2022-09-09T16:10:00;1.42;;;0.90;;
58468;SDS011;44257;44.804;10.220;2022-09-09T16:12:27;1.23;;;0.85;;
58468;SDS011;44257;44.804;10.220;2022-09-09T16:14:53;2.67;;;1.30;;
58468;SDS011;44257;44.804;10.220;2022-09-09T16:17:18;1.85;;;1.23;;
58468;SDS011;44257;44.804;10.220;2022-09-09T16:19:45;0.90;;;0.68;;
58468;SDS011;44257;44.804;10.220;2022-09-09T16:22:11;1.45;;;0.73;;
58468;SDS011;44257;44.804;10.220;2022-09-09T16:24:40;1.10;;;0.80;;
58468;SDS011;44257;44.804;10.220;2022-09-09T16:27:06;1.60;;;0.93;;
58468;SDS011;44257;44.804;10.220;2022-09-09T16:29:32;1.33;;;0.85;;
58468;SDS011;44257;44.804;10.220;2022-09-09T16:31:58;1.23;;;0.90;;
58468;SDS011;44257;44.804;10.220;2022-09-09T16:34:25;0.90;;;0.63;;
58468;SDS011;44257;44.804;10.220;2022-09-09T16:36:51;0.90;;;0.70;;
58468;SDS011;44257;44.804;10.220;2022-09-09T16:39:18;0.73;;;0.50;;
58468;SDS011;44257;44.804;10.220;2022-09-09T16:41:46;1.65;;;1.08;;
58468;SDS011;44257;44.804;10.220;2022-09-09T16:44:14;1.63;;;0.70;;
58468;SDS011;44257;44.804;10.220;2022-09-09T16:46:43;2.22;;;1.10;;
58468;SDS011;44257;44.804;10.220;2022-09-09T16:49:11;1.98;;;1.13;;
58468;SDS011;44257;44.804;10.220;2022-09-09T16:51:58;2.78;;;0.93;;
58468;SDS011;44257;44.804;10.220;2022-09-09T16:54:24;2.05;;;1.17;;
58468;SDS011;44257;44.804;10.220;2022-09-09T16:56:52;2.83;;;0.93;;
58468;SDS011;44257;44.804;10.220;2022-09-09T16:59:18;2.03;;;1.10;;
58468;SDS011;44257;44.804;10.220;2022-09-09T17:01:47;1.23;;;0.65;;
58468;SDS011;44257;44.804;10.220;2022-09-09T17:04:16;0.90;;;0.75;;
58468;SDS011;44257;44.804;10.220;2022-09-09T17:06:46;1.35;;;0.95;;
58468;SDS011;44257;44.804;10.220;2022-09-09T17:09:14;2.45;;;1.42;;
58468;SDS011;44257;44.804;10.220;2022-09-09T17:11:41;2.20;;;1.08;;
58468;SDS011;44257;44.804;10.220;2022-09-09T17:14:08;3.03;;;0.80;;
58468;SDS011;44257;44.804;10.220;2022-09-09T17:16:36;1.98;;;0.90;;
58468;SDS011;44257;44.804;10.220;2022-09-09T17:19:04;2.08;;;1.35;;
58468;SDS011;44257;44.804;10.220;2022-09-09T17:21:30;2.90;;;1.17;;
58468;SDS011;44257;44.804;10.220;2022-09-09T17:23:57;3.58;;;1.27;;
58468;SDS011;44257;44.804;10.220;2022-09-09T17:26:25;2.17;;;1.13;;